sensor_id;sensor_type;location;lat;lon;timestamp;P1;durP1;ratioP1;P2;durP2;ratioP2
69280;SDS011;56392;51.082;17.080;2023-06-26T00:03:14;11.47;;;5.87;;
69280;SDS011;56392;51.082;17.080;2023-06-26T00:08:38;13.48;;;6.25;;
69280;SDS011;56392;51.082;17.080;2023-06-26T00:14:02;12.10;;;6.28;;
69280;SDS011;56392;51.082;17.080;2023-06-26T00:19:25;12.43;;;6.50;;
69280;SDS011;56392;51.082;17.080;2023-06-26T00:24:49;13.77;;;6.23;;
69280;SDS011;56392;51.082;17.080;2023-06-26T00:30:13;12.25;;;6.35;;
69280;SDS011;56392;51.082;17.080;2023-06-26T00:35:36;11.93;;;6.35;;
69280;SDS011;56392;51.082;17.080;2023-06-26T00:41:01;13.10;;;6.37;;
69280;SDS011;56392;51.082;17.080;2023-06-26T00:46:24;11.68;;;6.85;;
69280;SDS011;56392;51.082;17.080;2023-06-26T00:51:48;12.52;;;6.70;;
69280;SDS011;56392;51.082;17.080;2023-06-26T00:57:13;13.93;;;7.60;;
69280;SDS011;56392;51.082;17.080;2023-06-26T01:02:37;13.05;;;6.82;;
69280;SDS011;56392;51.082;17.080;2023-06-26T01:08:00;13.90;;;7.35;;
69280;SDS011;56392;51.082;17.080;2023-06-26T01:13:25;13.53;;;6.90;;
69280;SDS011;56392;51.082;17.080;2023-06-26T01:18:50;13.23;;;6.93;;
69280;SDS011;56392;51.082;17.080;2023-06-26T01:24:15;16.55;;;6.47;;
69280;SDS011;56392;51.082;17.080;2023-06-26T01:29:43;15.05;;;7.05;;
69280;SDS011;56392;51.082;17.080;2023-06-26T01:35:08;15.40;;;8.50;;
69280;SDS011;56392;51.082;17.080;2023-06-26T01:40:33;15.00;;;8.20;;
69280;SDS011;56392;51.082;17.080;2023-06-26T01:45:58;16.42;;;8.63;;
69280;SDS011;56392;51.082;17.080;2023-06-26T01:51:29;15.97;;;8.50;;
69280;SDS011;56392;51.082;17.080;2023-06-26T01:56:55;17.65;;;8.45;;
69280;SDS011;56392;51.082;17.080;2023-06-26T02:02:21;17.70;;;9.00;;
69280;SDS011;56392;51.082;17.080;2023-06-26T02:07:46;16.33;;;8.50;;
69280;SDS011;56392;51.082;17.080;2023-06-26T02:13:09;18.17;;;9.10;;
69280;SDS011;56392;51.082;17.080;2023-06-26T02:18:33;16.67;;;8.93;;
69280;SDS011;56392;51.082;17.080;2023-06-26T02:23:57;16.30;;;8.48;;
69280;SDS011;56392;51.082;17.080;2023-06-26T02:29:20;20.17;;;9.33;;
69280;SDS011;56392;51.082;17.080;2023-06-26T02:34:44;16.55;;;9.15;;
69280;SDS011;56392;51.082;17.080;2023-06-26T02:40:07;16.58;;;8.70;;
69280;SDS011;56392;51.082;17.080;2023-06-26T02:45:31;17.43;;;8.27;;
69280;SDS011;56392;51.082;17.080;2023-06-26T02:50:56;19.85;;;8.35;;
69280;SDS011;56392;51.082;17.080;2023-06-26T02:56:19;17.23;;;8.27;;
69280;SDS011;56392;51.082;17.080;2023-06-26T03:01:42;15.13;;;8.07;;
69280;SDS011;56392;51.082;17.080;2023-06-26T03:07:07;15.47;;;8.27;;
69280;SDS011;56392;51.082;17.080;2023-06-26T03:12:30;15.85;;;8.27;;
69280;SDS011;56392;51.082;17.080;2023-06-26T03:17:53;16.13;;;8.00;;
69280;SDS011;56392;51.082;17.080;2023-06-26T03:23:17;15.10;;;7.80;;
69280;SDS011;56392;51.082;17.080;2023-06-26T03:28:40;18.42;;;8.52;;
69280;SDS011;56392;51.082;17.080;2023-06-26T03:34:04;14.98;;;8.15;;
69280;SDS011;56392;51.082;17.080;2023-06-26T03:39:29;17.63;;;8.10;;
69280;SDS011;56392;51.082;17.080;2023-06-26T03:44:52;16.55;;;8.50;;
69280;SDS011;56392;51.082;17.080;2023-06-26T03:50:15;17.58;;;8.00;;
69280;SDS011;56392;51.082;17.080;2023-06-26T03:55:42;16.87;;;7.83;;
69280;SDS011;56392;51.082;17.080;2023-06-26T04:01:05;15.83;;;7.33;;
69280;SDS011;56392;51.082;17.080;2023-06-26T04:06:29;15.07;;;7.80;;
69280;SDS011;56392;51.082;17.080;2023-06-26T04:11:54;15.52;;;7.72;;
69280;SDS011;56392;51.082;17.080;2023-06-26T04:17:17;14.50;;;8.00;;
69280;SDS011;56392;51.082;17.080;2023-06-26T04:22:41;15.93;;;8.07;;
69280;SDS011;56392;51.082;17.080;2023-06-26T04:28:05;17.85;;;8.00;;
69280;SDS011;56392;51.082;17.080;2023-06-26T04:33:28;18.13;;;7.97;;
69280;SDS011;56392;51.082;17.080;2023-06-26T04:38:52;15.82;;;7.70;;
69280;SDS011;56392;51.082;17.080;2023-06-26T04:44:16;14.32;;;7.03;;
69280;SDS011;56392;51.082;17.080;2023-06-26T04:49:39;14.27;;;7.37;;
69280;SDS011;56392;51.082;17.080;2023-06-26T04:55:04;15.43;;;7.27;;
69280;SDS011;56392;51.082;17.080;2023-06-26T05:00:29;15.98;;;6.95;;
69280;SDS011;56392;51.082;17.080;2023-06-26T05:05:53;16.27;;;6.72;;
69280;SDS011;56392;51.082;17.080;2023-06-26T05:11:17;16.73;;;6.30;;
69280;SDS011;56392;51.082;17.080;2023-06-26T05:16:41;13.07;;;6.15;;
69280;SDS011;56392;51.082;17.080;2023-06-26T05:22:05;14.13;;;5.90;;
69280;SDS011;56392;51.082;17.080;2023-06-26T05:27:31;13.20;;;5.90;;
69280;SDS011;56392;51.082;17.080;2023-06-26T05:32:56;14.15;;;6.15;;
69280;SDS011;56392;51.082;17.080;2023-06-26T05:38:21;14.05;;;6.10;;
69280;SDS011;56392;51.082;17.080;2023-06-26T05:43:46;12.52;;;6.10;;
69280;SDS011;56392;51.082;17.080;2023-06-26T05:49:11;12.87;;;5.93;;
69280;SDS011;56392;51.082;17.080;2023-06-26T05:54:34;18.92;;;6.30;;
69280;SDS011;56392;51.082;17.080;2023-06-26T06:00:01;13.65;;;6.45;;
69280;SDS011;56392;51.082;17.080;2023-06-26T06:05:29;15.97;;;5.90;;
69280;SDS011;56392;51.082;17.080;2023-06-26T06:10:53;16.63;;;6.07;;
69280;SDS011;56392;51.082;17.080;2023-06-26T06:16:18;11.68;;;6.35;;
69280;SDS011;56392;51.082;17.080;2023-06-26T06:21:42;12.50;;;6.30;;
69280;SDS011;56392;51.082;17.080;2023-06-26T06:27:05;12.65;;;6.10;;
69280;SDS011;56392;51.082;17.080;2023-06-26T06:32:29;12.00;;;6.85;;
69280;SDS011;56392;51.082;17.080;2023-06-26T06:37:56;10.48;;;6.00;;
69280;SDS011;56392;51.082;17.080;2023-06-26T06:43:19;10.67;;;6.10;;
69280;SDS011;56392;51.082;17.080;2023-06-26T06:48:42;12.48;;;6.13;;
69280;SDS011;56392;51.082;17.080;2023-06-26T06:54:07;11.93;;;5.63;;
69280;SDS011;56392;51.082;17.080;2023-06-26T06:59:30;9.97;;;5.60;;
69280;SDS011;56392;51.082;17.080;2023-06-26T07:04:53;13.52;;;5.88;;
69280;SDS011;56392;51.082;17.080;2023-06-26T07:10:18;10.73;;;5.75;;
69280;SDS011;56392;51.082;17.080;2023-06-26T07:15:41;10.47;;;5.63;;
69280;SDS011;56392;51.082;17.080;2023-06-26T07:21:05;8.65;;;5.80;;
69280;SDS011;56392;51.082;17.080;2023-06-26T07:26:30;8.70;;;5.43;;
69280;SDS011;56392;51.082;17.080;2023-06-26T07:31:54;12.50;;;5.80;;
69280;SDS011;56392;51.082;17.080;2023-06-26T07:37:17;9.57;;;5.83;;
69280;SDS011;56392;51.082;17.080;2023-06-26T07:42:42;11.10;;;6.32;;
69280;SDS011;56392;51.082;17.080;2023-06-26T07:48:06;10.05;;;5.60;;
69280;SDS011;56392;51.082;17.080;2023-06-26T07:53:32;9.60;;;6.03;;
69280;SDS011;56392;51.082;17.080;2023-06-26T07:59:07;10.90;;;6.15;;
69280;SDS011;56392;51.082;17.080;2023-06-26T08:04:31;10.63;;;5.80;;
69280;SDS011;56392;51.082;17.080;2023-06-26T08:09:55;9.63;;;5.93;;
69280;SDS011;56392;51.082;17.080;2023-06-26T08:15:19;12.85;;;6.00;;
69280;SDS011;56392;51.082;17.080;2023-06-26T08:20:43;9.32;;;5.90;;
69280;SDS011;56392;51.082;17.080;2023-06-26T08:26:06;7.80;;;6.07;;
69280;SDS011;56392;51.082;17.080;2023-06-26T08:31:32;9.47;;;6.20;;
69280;SDS011;56392;51.082;17.080;2023-06-26T08:36:55;8.35;;;6.00;;
69280;SDS011;56392;51.082;17.080;2023-06-26T08:42:19;9.18;;;6.78;;
69280;SDS011;56392;51.082;17.080;2023-06-26T08:47:43;10.70;;;6.57;;
69280;SDS011;56392;51.082;17.080;2023-06-26T08:53:09;9.00;;;6.75;;
69280;SDS011;56392;51.082;17.080;2023-06-26T08:58:37;9.98;;;6.80;;
69280;SDS011;56392;51.082;17.080;2023-06-26T09:04:02;8.70;;;6.93;;
69280;SDS011;56392;51.082;17.080;2023-06-26T09:09:26;9.10;;;6.78;;
69280;SDS011;56392;51.082;17.080;2023-06-26T09:14:49;9.15;;;7.22;;
69280;SDS011;56392;51.082;17.080;2023-06-26T09:20:14;10.10;;;7.55;;
69280;SDS011;56392;51.082;17.080;2023-06-26T09:25:38;9.90;;;7.43;;
69280;SDS011;56392;51.082;17.080;2023-06-26T09:31:02;9.07;;;8.00;;
69280;SDS011;56392;51.082;17.080;2023-06-26T09:36:28;8.68;;;6.45;;
69280;SDS011;56392;51.082;17.080;2023-06-26T09:41:55;9.77;;;6.57;;
69280;SDS011;56392;51.082;17.080;2023-06-26T09:47:19;8.57;;;6.50;;
69280;SDS011;56392;51.082;17.080;2023-06-26T09:52:44;9.15;;;5.95;;
69280;SDS011;56392;51.082;17.080;2023-06-26T09:58:07;11.20;;;6.00;;
69280;SDS011;56392;51.082;17.080;2023-06-26T10:03:31;7.82;;;5.25;;
69280;SDS011;56392;51.082;17.080;2023-06-26T10:08:56;8.68;;;5.25;;
69280;SDS011;56392;51.082;17.080;2023-06-26T10:14:21;7.63;;;4.70;;
69280;SDS011;56392;51.082;17.080;2023-06-26T10:19:45;8.57;;;4.97;;
69280;SDS011;56392;51.082;17.080;2023-06-26T10:25:11;8.77;;;4.70;;
69280;SDS011;56392;51.082;17.080;2023-06-26T10:30:42;9.27;;;4.15;;
69280;SDS011;56392;51.082;17.080;2023-06-26T10:36:13;7.50;;;4.37;;
69280;SDS011;56392;51.082;17.080;2023-06-26T10:41:40;8.20;;;4.40;;
69280;SDS011;56392;51.082;17.080;2023-06-26T10:47:05;7.45;;;4.40;;
69280;SDS011;56392;51.082;17.080;2023-06-26T10:52:28;7.30;;;4.27;;
69280;SDS011;56392;51.082;17.080;2023-06-26T10:57:56;7.57;;;3.90;;
69280;SDS011;56392;51.082;17.080;2023-06-26T11:03:23;7.57;;;3.92;;
69280;SDS011;56392;51.082;17.080;2023-06-26T11:08:50;9.02;;;4.30;;
69280;SDS011;56392;51.082;17.080;2023-06-26T11:14:17;8.63;;;4.50;;
69280;SDS011;56392;51.082;17.080;2023-06-26T11:19:42;7.93;;;4.18;;
69280;SDS011;56392;51.082;17.080;2023-06-26T11:25:06;7.30;;;3.90;;
69280;SDS011;56392;51.082;17.080;2023-06-26T11:30:34;7.97;;;3.90;;
69280;SDS011;56392;51.082;17.080;2023-06-26T11:36:07;8.25;;;3.97;;
69280;SDS011;56392;51.082;17.080;2023-06-26T11:41:34;7.57;;;3.90;;
69280;SDS011;56392;51.082;17.080;2023-06-26T11:47:02;7.43;;;4.43;;
69280;SDS011;56392;51.082;17.080;2023-06-26T11:52:25;10.13;;;3.70;;
69280;SDS011;56392;51.082;17.080;2023-06-26T11:57:48;9.50;;;3.60;;
69280;SDS011;56392;51.082;17.080;2023-06-26T12:03:14;7.90;;;3.88;;
69280;SDS011;56392;51.082;17.080;2023-06-26T12:08:39;8.40;;;3.80;;
69280;SDS011;56392;51.082;17.080;2023-06-26T12:14:07;9.13;;;3.78;;
69280;SDS011;56392;51.082;17.080;2023-06-26T12:19:33;9.02;;;4.25;;
69280;SDS011;56392;51.082;17.080;2023-06-26T12:24:59;7.47;;;3.67;;
69280;SDS011;56392;51.082;17.080;2023-06-26T12:30:22;8.90;;;3.90;;
69280;SDS011;56392;51.082;17.080;2023-06-26T12:35:50;8.30;;;3.80;;
69280;SDS011;56392;51.082;17.080;2023-06-26T12:41:13;7.07;;;3.53;;
69280;SDS011;56392;51.082;17.080;2023-06-26T12:46:37;8.98;;;4.00;;
69280;SDS011;56392;51.082;17.080;2023-06-26T12:52:03;9.68;;;3.88;;
69280;SDS011;56392;51.082;17.080;2023-06-26T12:57:27;9.52;;;4.20;;
69280;SDS011;56392;51.082;17.080;2023-06-26T13:02:50;7.30;;;3.80;;
69280;SDS011;56392;51.082;17.080;2023-06-26T13:08:16;7.43;;;3.90;;
69280;SDS011;56392;51.082;17.080;2023-06-26T13:13:40;7.50;;;3.60;;
69280;SDS011;56392;51.082;17.080;2023-06-26T13:19:03;6.97;;;3.50;;
69280;SDS011;56392;51.082;17.080;2023-06-26T13:24:28;7.55;;;3.80;;
69280;SDS011;56392;51.082;17.080;2023-06-26T13:29:51;8.23;;;3.58;;
69280;SDS011;56392;51.082;17.080;2023-06-26T13:35:15;7.30;;;3.77;;
69280;SDS011;56392;51.082;17.080;2023-06-26T13:40:40;8.10;;;3.70;;
69280;SDS011;56392;51.082;17.080;2023-06-26T13:46:04;7.90;;;3.60;;
69280;SDS011;56392;51.082;17.080;2023-06-26T13:51:27;7.10;;;3.50;;
69280;SDS011;56392;51.082;17.080;2023-06-26T13:56:52;7.60;;;3.40;;
69280;SDS011;56392;51.082;17.080;2023-06-26T14:02:19;8.00;;;3.63;;
69280;SDS011;56392;51.082;17.080;2023-06-26T14:07:42;8.88;;;3.35;;
69280;SDS011;56392;51.082;17.080;2023-06-26T14:13:07;7.87;;;3.70;;
69280;SDS011;56392;51.082;17.080;2023-06-26T14:18:33;6.72;;;3.50;;
69280;SDS011;56392;51.082;17.080;2023-06-26T14:23:57;7.00;;;3.40;;
69280;SDS011;56392;51.082;17.080;2023-06-26T14:29:25;8.87;;;3.77;;
69280;SDS011;56392;51.082;17.080;2023-06-26T14:34:48;10.90;;;3.50;;
69280;SDS011;56392;51.082;17.080;2023-06-26T14:40:12;8.35;;;3.40;;
69280;SDS011;56392;51.082;17.080;2023-06-26T14:45:37;8.82;;;3.70;;
69280;SDS011;56392;51.082;17.080;2023-06-26T14:51:00;7.40;;;3.77;;
69280;SDS011;56392;51.082;17.080;2023-06-26T14:56:23;8.60;;;3.70;;
69280;SDS011;56392;51.082;17.080;2023-06-26T15:01:52;7.40;;;3.60;;
69280;SDS011;56392;51.082;17.080;2023-06-26T15:07:15;7.67;;;3.33;;
69280;SDS011;56392;51.082;17.080;2023-06-26T15:12:40;8.68;;;3.80;;
69280;SDS011;56392;51.082;17.080;2023-06-26T15:18:04;7.68;;;3.25;;
69280;SDS011;56392;51.082;17.080;2023-06-26T15:23:28;7.67;;;3.67;;
69280;SDS011;56392;51.082;17.080;2023-06-26T15:28:51;8.98;;;3.70;;
69280;SDS011;56392;51.082;17.080;2023-06-26T15:34:17;7.38;;;3.97;;
69280;SDS011;56392;51.082;17.080;2023-06-26T15:39:41;7.47;;;3.58;;
69280;SDS011;56392;51.082;17.080;2023-06-26T15:45:05;7.47;;;3.70;;
69280;SDS011;56392;51.082;17.080;2023-06-26T15:50:30;10.73;;;3.78;;
69280;SDS011;56392;51.082;17.080;2023-06-26T15:55:54;7.38;;;3.78;;
69280;SDS011;56392;51.082;17.080;2023-06-26T16:01:17;7.33;;;3.63;;
69280;SDS011;56392;51.082;17.080;2023-06-26T16:06:43;7.07;;;3.55;;
69280;SDS011;56392;51.082;17.080;2023-06-26T16:12:08;7.90;;;3.75;;
69280;SDS011;56392;51.082;17.080;2023-06-26T16:17:32;8.37;;;3.90;;
69280;SDS011;56392;51.082;17.080;2023-06-26T16:22:57;6.93;;;3.75;;
69280;SDS011;56392;51.082;17.080;2023-06-26T16:28:20;8.35;;;4.30;;
69280;SDS011;56392;51.082;17.080;2023-06-26T16:33:43;7.15;;;3.70;;
69280;SDS011;56392;51.082;17.080;2023-06-26T16:39:08;7.50;;;3.93;;
69280;SDS011;56392;51.082;17.080;2023-06-26T16:44:33;8.35;;;4.00;;
69280;SDS011;56392;51.082;17.080;2023-06-26T16:49:56;8.38;;;4.18;;
69280;SDS011;56392;51.082;17.080;2023-06-26T16:55:21;7.73;;;4.00;;
69280;SDS011;56392;51.082;17.080;2023-06-26T17:00:44;7.78;;;4.55;;
69280;SDS011;56392;51.082;17.080;2023-06-26T17:06:07;9.63;;;4.18;;
69280;SDS011;56392;51.082;17.080;2023-06-26T17:11:33;8.27;;;4.07;;
69280;SDS011;56392;51.082;17.080;2023-06-26T17:16:59;7.57;;;4.00;;
69280;SDS011;56392;51.082;17.080;2023-06-26T17:22:22;8.40;;;4.00;;
69280;SDS011;56392;51.082;17.080;2023-06-26T17:27:48;7.50;;;4.20;;
69280;SDS011;56392;51.082;17.080;2023-06-26T17:33:12;9.17;;;4.20;;
69280;SDS011;56392;51.082;17.080;2023-06-26T17:38:35;9.57;;;3.90;;
69280;SDS011;56392;51.082;17.080;2023-06-26T17:44:01;10.52;;;5.00;;
69280;SDS011;56392;51.082;17.080;2023-06-26T17:49:24;8.03;;;4.00;;
69280;SDS011;56392;51.082;17.080;2023-06-26T17:54:48;13.93;;;4.30;;
69280;SDS011;56392;51.082;17.080;2023-06-26T18:00:14;8.50;;;4.03;;
69280;SDS011;56392;51.082;17.080;2023-06-26T18:05:39;10.47;;;4.97;;
69280;SDS011;56392;51.082;17.080;2023-06-26T18:11:03;9.20;;;4.00;;
69280;SDS011;56392;51.082;17.080;2023-06-26T18:16:28;10.65;;;4.30;;
69280;SDS011;56392;51.082;17.080;2023-06-26T18:21:52;8.77;;;4.20;;
69280;SDS011;56392;51.082;17.080;2023-06-26T18:27:15;10.33;;;5.07;;
69280;SDS011;56392;51.082;17.080;2023-06-26T18:32:41;8.77;;;4.55;;
69280;SDS011;56392;51.082;17.080;2023-06-26T18:38:05;11.32;;;4.68;;
69280;SDS011;56392;51.082;17.080;2023-06-26T18:43:32;8.03;;;4.00;;
69280;SDS011;56392;51.082;17.080;2023-06-26T18:49:03;9.27;;;4.43;;
69280;SDS011;56392;51.082;17.080;2023-06-26T18:54:27;9.93;;;4.65;;
69280;SDS011;56392;51.082;17.080;2023-06-26T18:59:50;10.43;;;4.53;;
69280;SDS011;56392;51.082;17.080;2023-06-26T19:05:14;11.68;;;6.68;;
69280;SDS011;56392;51.082;17.080;2023-06-26T19:10:42;8.18;;;4.60;;
69280;SDS011;56392;51.082;17.080;2023-06-26T19:16:07;8.80;;;4.50;;
69280;SDS011;56392;51.082;17.080;2023-06-26T19:21:32;10.17;;;4.47;;
69280;SDS011;56392;51.082;17.080;2023-06-26T19:26:56;9.00;;;4.28;;
69280;SDS011;56392;51.082;17.080;2023-06-26T19:32:20;10.63;;;4.60;;
69280;SDS011;56392;51.082;17.080;2023-06-26T19:37:45;12.07;;;4.40;;
69280;SDS011;56392;51.082;17.080;2023-06-26T19:43:09;9.10;;;4.55;;
69280;SDS011;56392;51.082;17.080;2023-06-26T19:48:33;9.70;;;4.30;;
69280;SDS011;56392;51.082;17.080;2023-06-26T19:54:03;10.07;;;4.77;;
69280;SDS011;56392;51.082;17.080;2023-06-26T19:59:27;8.70;;;4.50;;
69280;SDS011;56392;51.082;17.080;2023-06-26T20:04:52;14.27;;;3.00;;
69280;SDS011;56392;51.082;17.080;2023-06-26T20:10:16;18.38;;;3.72;;
69280;SDS011;56392;51.082;17.080;2023-06-26T20:15:40;19.17;;;4.50;;
69280;SDS011;56392;51.082;17.080;2023-06-26T20:21:03;15.88;;;4.10;;
69280;SDS011;56392;51.082;17.080;2023-06-26T20:26:28;10.75;;;2.90;;
69280;SDS011;56392;51.082;17.080;2023-06-26T20:31:51;10.07;;;2.87;;
69280;SDS011;56392;51.082;17.080;2023-06-26T20:37:14;10.77;;;3.00;;
69280;SDS011;56392;51.082;17.080;2023-06-26T20:42:39;9.23;;;3.30;;
69280;SDS011;56392;51.082;17.080;2023-06-26T20:48:03;12.00;;;3.23;;
69280;SDS011;56392;51.082;17.080;2023-06-26T20:53:27;7.75;;;3.05;;
69280;SDS011;56392;51.082;17.080;2023-06-26T20:58:53;15.10;;;3.47;;
69280;SDS011;56392;51.082;17.080;2023-06-26T21:04:16;8.17;;;3.17;;
69280;SDS011;56392;51.082;17.080;2023-06-26T21:09:41;8.60;;;2.80;;
69280;SDS011;56392;51.082;17.080;2023-06-26T21:15:06;8.13;;;2.80;;
69280;SDS011;56392;51.082;17.080;2023-06-26T21:20:30;8.70;;;3.55;;
69280;SDS011;56392;51.082;17.080;2023-06-26T21:25:53;10.00;;;3.07;;
69280;SDS011;56392;51.082;17.080;2023-06-26T21:31:18;7.72;;;3.53;;
69280;SDS011;56392;51.082;17.080;2023-06-26T21:36:41;9.48;;;4.18;;
69280;SDS011;56392;51.082;17.080;2023-06-26T21:42:04;10.07;;;4.60;;
69280;SDS011;56392;51.082;17.080;2023-06-26T21:47:29;10.27;;;4.38;;
69280;SDS011;56392;51.082;17.080;2023-06-26T21:52:54;15.15;;;5.40;;
69280;SDS011;56392;51.082;17.080;2023-06-26T21:58:17;12.07;;;5.90;;
69280;SDS011;56392;51.082;17.080;2023-06-26T22:03:42;11.43;;;6.17;;
69280;SDS011;56392;51.082;17.080;2023-06-26T22:09:05;12.80;;;6.30;;
69280;SDS011;56392;51.082;17.080;2023-06-26T22:14:29;10.82;;;6.05;;
69280;SDS011;56392;51.082;17.080;2023-06-26T22:19:53;11.97;;;6.00;;
69280;SDS011;56392;51.082;17.080;2023-06-26T22:25:16;12.07;;;6.70;;
69280;SDS011;56392;51.082;17.080;2023-06-26T22:30:41;15.45;;;6.78;;
69280;SDS011;56392;51.082;17.080;2023-06-26T22:36:06;10.90;;;6.83;;
69280;SDS011;56392;51.082;17.080;2023-06-26T22:41:32;12.05;;;7.07;;
69280;SDS011;56392;51.082;17.080;2023-06-26T22:46:55;12.30;;;6.45;;
69280;SDS011;56392;51.082;17.080;2023-06-26T22:52:20;11.83;;;6.83;;
69280;SDS011;56392;51.082;17.080;2023-06-26T22:57:44;11.43;;;6.57;;
69280;SDS011;56392;51.082;17.080;2023-06-26T23:03:07;15.50;;;7.43;;
69280;SDS011;56392;51.082;17.080;2023-06-26T23:08:33;11.65;;;6.75;;
69280;SDS011;56392;51.082;17.080;2023-06-26T23:13:56;10.93;;;6.47;;
69280;SDS011;56392;51.082;17.080;2023-06-26T23:19:20;12.93;;;7.55;;
69280;SDS011;56392;51.082;17.080;2023-06-26T23:24:47;11.35;;;6.88;;
69280;SDS011;56392;51.082;17.080;2023-06-26T23:30:11;13.93;;;7.33;;
69280;SDS011;56392;51.082;17.080;2023-06-26T23:35:34;12.45;;;7.68;;
69280;SDS011;56392;51.082;17.080;2023-06-26T23:40:59;13.52;;;7.60;;
69280;SDS011;56392;51.082;17.080;2023-06-26T23:46:22;12.97;;;7.10;;
69280;SDS011;56392;51.082;17.080;2023-06-26T23:51:45;12.07;;;7.60;;
69280;SDS011;56392;51.082;17.080;2023-06-26T23:57:10;10.82;;;7.13;;
